KOMK/OMK METAR and TAF weather

Enter ICAO airport designator
Station Type Date Time Source
KOMK METAR 2020/02/27 12:53 UTC NOAA

KOMK 271253Z AUTO 30003KT 10SM CLR M01/M04 A3039 RMK AO2 SLP301 T10061039


Station Type Date Time Source
KOMK Decoded METAR 2020/02/27 12:53 UTC NOAA

OMAK AIRPORT, WA, United States (KOMK) 48-28N 119-31W 395M
Feb 27, 2020 - 07:53 AM EST / 2020.02.27 1253 UTC
Wind: from the WNW (300 degrees) at 3 MPH (3 KT):0
Visibility: 10 mile(s):0
Sky conditions: clear
Temperature: 30.9 F (-0.6 C)
Dew Point: 25.0 F (-3.9 C)
Relative Humidity: 78%
Pressure (altimeter): 30.39 in. Hg (1029 hPa)
ob: KOMK 271253Z AUTO 30003KT 10SM CLR M01/M04 A3039 RMK AO2 SLP301 T10061039
cycle: 13

Station Type Date Time Source
KOMK TAF UTC NOAA

Error!

Example: see airport list